Etusivu
METAR-TAF:

METAR-TAF

Lentoasemat :

Pembrey, Wales

Leveyspiiri: 51-43N, Pituuspiiri: 004-22W, korkeus merenpinnasta: 3 m

Tämänhetkinen sää

Tämä raportti tehtiin 41 minuuttia sitten, kello 06.50 UTC
Tuuli 15 kn pohjoisen/luoteesta
Lämpötila 8°C
Kosteus 81%
Ilmanpaine 1033 hPa
Näkyvyys 10 km tai enemmän

METAR: EGOP 250650Z AUTO 33015KT 9999 // FEW023/// BKN044/// 08/05 Q1033

Aika: 07:31 (07:31 UTC)


TAF: puuttuu

Säähavainnot ja -ennusteet yli 4000 lentoasemalta (METAR- ja TAF-raportit).

Käytössä olevat sääasemat on merkitty karttaan keltaisilla ja punaisilla pisteillä.

Aseta hiiri pisteen päälle nähdäksesi sääaseman nimen.

Klikkaa sitten nähdäksesi säähavainnot ja -ennusteet.

Kartan vaihtaminen: klikkaa mustalla rastilla varustettuja vihreitä pisteitä, niin voit zoomata sisään; viivalla varustettua vihreää pistettä, niin voit zoomata ulos tai vihreitä nuolia, niin pääset viereisille kartoille.


METAR-TAF: